Detall de PIREP

Printer-friendly versionPDF version

[2008/10/12 20:58:00]
Flight IATA:CT3300
Pilot Number:026
Company ICAO:CAT
Aircraft Type:B75F/E
PAX:0
Departing Airport: LEZG
Destination Airport: DAAG
Alternate Airport:DABC
Online: VATSIM
Route:CMA/N0410F250 UM176 CLS/N0410F300 UN733 VLC UM134 IZA/N0410F310 UN856 SADAF/N0250F250
Flight Level:FL310
No Slew and time accel
No pause
Crash detect
Detect pilot in Cockpit between each 30 and 45 minutes
20:58 Zero fuel Weight: 236080 Lbs, Fuel Weight: 19497 Lbs
20:58 VATSIM:LEZG 122030Z 14004KT 6000 TS FEW020 SCT030CB BKN060 18/18 Q1025
20:58 VATSIM:DAAG 122000Z 33005KT 290V350 6000 NSC 24/19 Q1024
20:58 VOICE CATALONIAN
21:01 Parking Brakes off
21:18 Take-off
21:18 Take off Weight: 253562 Lbs
21:18 Wind: 090º @ 001 Knots Heading: 120º
21:18 POS N41º 39´ 31´´ W001º 00´ 58´´
21:18 Flaps:2 at 187 Knots
21:18 Gear Up: 189 Knots
21:18 Flaps:1 at 178 Knots
21:20 Flaps:0 at
213 Knots
21:33 Wind:033º@008 Knots Heading: 167º Ground Speed: 455 Knots Altitude 27828 ft
21:47 TOC
21:47 Fuel Weight: 10307 Lb
21:48 Wind:047º@023 Knots Heading: 108º Ground Speed: 468 Knots Altitude 31302 ft
22:00 TOD
22:00 Fuel Weight: 8370 Lb
22:03 Wind:188º@002 Knots Heading: 147º Ground Speed: 415 Knots Altitude 24304 ft
22:18 Wind:239º@019 Knots Heading: 204º Ground Speed: 232 Knots Altitude 5049 ft
22:21 Flaps:1 at 216 Knots
22:21 Flaps:2 at 208 Knots
22:21 Gear Down: 209 Knots
22:22 Flaps:3 at 216 Knots
22:22 Flaps:6 at 215 Knots
22:22 TouchDown:Rate -507 ft/min Speed: 155 Knots
22:23 VATSIM:DAAG 122130Z 24008KT 200V260 9999 FEW026 SCT050 BKN090 25/18 Q1025
22:23 Land
22:23 Wind:230º@010 Knots
22:23 Heading: 235º
22:23 Flight Duration: 01:05
22:23 Landing Weight: 243053 Lbs
22:23 POS N36º 42´ 11´´ E003º 14´ 08´´
22:27 Parking brakes on
22:27
Block to Block Duration: 01:26
22:27 Final Fuel: 6523 Lbls
22:27 Spent Fuel: 12974 Lbls
22:27 Flight Length: 423 NM
22:27 TOD Land Length: 115 NM

Exportar CSV

Powered by Drupal - Modified by Danger4k